createdAt,value
2023-03-05T00:02:07.044Z,2.33
2023-03-05T00:04:34.167Z,2.30
2023-03-05T00:07:01.354Z,2.90
2023-03-05T00:09:30.235Z,2.67
2023-03-05T00:11:57.276Z,2.53
2023-03-05T00:14:24.324Z,3.00
2023-03-05T00:16:51.356Z,2.75
2023-03-05T00:19:18.333Z,3.05
2023-03-05T00:21:45.377Z,3.25
2023-03-05T00:24:15.186Z,3.05
2023-03-05T00:26:44.574Z,3.40
2023-03-05T00:29:14.600Z,3.75
2023-03-05T00:31:41.731Z,4.22
2023-03-05T00:34:11.368Z,4.50
2023-03-05T00:36:40.599Z,4.47
2023-03-05T00:39:07.903Z,4.75
2023-03-05T00:41:35.097Z,5.25
2023-03-05T00:44:03.956Z,4.80
2023-03-05T00:46:31.114Z,5.00
2023-03-05T00:48:58.259Z,5.25
2023-03-05T00:51:25.887Z,5.18
2023-03-05T00:53:53.110Z,5.30
2023-03-05T00:56:20.453Z,5.50
2023-03-05T00:58:47.612Z,5.18
2023-03-05T01:01:16.406Z,5.50
2023-03-05T01:03:43.484Z,6.25
2023-03-05T01:06:12.807Z,6.53
2023-03-05T01:08:39.946Z,5.18
2023-03-05T01:11:08.003Z,5.97
2023-03-05T01:13:35.245Z,6.10
2023-03-05T01:16:02.853Z,6.15
2023-03-05T01:18:32.539Z,6.18
2023-03-05T01:20:59.572Z,6.43
2023-03-05T01:23:27.018Z,6.22
2023-03-05T01:25:54.795Z,6.50
2023-03-05T01:28:21.858Z,6.70
2023-03-05T01:30:49.027Z,6.38
2023-03-05T01:33:16.252Z,6.95
2023-03-05T01:35:49.148Z,6.97
2023-03-05T01:38:16.759Z,6.82
2023-03-05T01:40:44.675Z,7.40
2023-03-05T01:43:35.472Z,7.32
2023-03-05T01:46:33.634Z,8.10
2023-03-05T01:49:10.766Z,7.57
2023-03-05T01:51:45.245Z,7.82
2023-03-05T01:54:15.162Z,7.03
2023-03-05T01:56:43.663Z,7.28
2023-03-05T01:59:12.202Z,7.78
2023-03-05T02:01:42.558Z,8.10
2023-03-05T02:04:10.157Z,7.72
2023-03-05T02:06:39.997Z,8.32
2023-03-05T02:09:07.049Z,8.95
2023-03-05T02:11:35.501Z,9.10
2023-03-05T02:14:03.290Z,9.13
2023-03-05T02:16:32.171Z,9.95
2023-03-05T02:18:59.191Z,10.05
2023-03-05T02:21:37.322Z,10.48
2023-03-05T02:24:04.946Z,11.30
2023-03-05T02:26:32.285Z,10.90
2023-03-05T02:29:03.185Z,11.88
2023-03-05T02:31:30.253Z,11.88
2023-03-05T02:33:57.340Z,12.02
2023-03-05T02:36:25.050Z,11.55
2023-03-05T02:38:53.559Z,13.40
2023-03-05T02:41:20.526Z,12.88
2023-03-05T02:43:47.596Z,12.65
2023-03-05T02:46:14.949Z,13.55
2023-03-05T02:48:41.993Z,13.15
2023-03-05T02:51:10.659Z,13.05
2023-03-05T02:53:37.714Z,12.88
2023-03-05T02:56:06.635Z,12.90
2023-03-05T02:58:40.661Z,12.80
2023-03-05T03:01:08.510Z,13.80
2023-03-05T03:03:42.580Z,13.25
2023-03-05T03:06:09.543Z,13.60
2023-03-05T03:08:42.537Z,14.23
2023-03-05T03:11:11.871Z,15.18
2023-03-05T03:13:45.536Z,13.63
2023-03-05T03:16:14.577Z,14.57
2023-03-05T03:18:48.560Z,14.15
2023-03-05T03:21:20.948Z,15.75
2023-03-05T03:23:54.554Z,14.60
2023-03-05T03:26:22.966Z,16.25
2023-03-05T03:28:56.637Z,15.02
2023-03-05T03:31:23.745Z,16.42
2023-03-05T03:33:57.535Z,15.35
2023-03-05T03:36:24.463Z,15.52
2023-03-05T03:38:57.548Z,16.52
2023-03-05T03:41:25.857Z,16.27
2023-03-05T03:43:59.571Z,15.40
2023-03-05T03:46:26.654Z,16.55
2023-03-05T03:49:00.582Z,16.48
2023-03-05T03:51:27.568Z,16.67
2023-03-05T03:54:01.668Z,15.82
2023-03-05T03:56:30.018Z,15.85
2023-03-05T03:59:05.930Z,16.63
2023-03-05T04:01:32.918Z,16.67
2023-03-05T04:04:06.583Z,18.02
2023-03-05T04:06:34.288Z,18.38
2023-03-05T04:09:07.585Z,19.08
2023-03-05T04:11:36.851Z,19.60
2023-03-05T04:14:10.617Z,19.67
2023-03-05T04:16:37.618Z,20.50
2023-03-05T04:19:11.561Z,20.33
2023-03-05T04:21:38.510Z,22.55
2023-03-05T04:24:12.552Z,23.67
2023-03-05T04:26:40.914Z,23.38
2023-03-05T04:29:14.575Z,24.30
2023-03-05T04:31:41.513Z,22.90
2023-03-05T04:34:14.551Z,23.98
2023-03-05T04:36:41.505Z,23.55
2023-03-05T04:39:08.520Z,23.35
2023-03-05T04:41:41.549Z,23.02
2023-03-05T04:44:09.913Z,22.10
2023-03-05T04:46:43.605Z,22.85
2023-03-05T04:49:10.670Z,21.80
2023-03-05T04:51:44.583Z,20.40
2023-03-05T04:54:12.202Z,22.02
2023-03-05T04:56:45.585Z,21.85
2023-03-05T04:59:13.966Z,21.70
2023-03-05T05:01:47.599Z,22.70
2023-03-05T05:04:14.614Z,21.35
2023-03-05T05:06:47.580Z,22.67
2023-03-05T05:09:14.730Z,22.35
2023-03-05T05:11:48.562Z,22.02
2023-03-05T05:14:17.131Z,21.63
2023-03-05T05:16:50.557Z,23.33
2023-03-05T05:19:17.665Z,22.92
2023-03-05T05:21:51.562Z,22.10
2023-03-05T05:24:18.511Z,22.70
2023-03-05T05:26:51.625Z,21.65
2023-03-05T05:29:20.062Z,20.95
2023-03-05T05:31:53.658Z,22.25
2023-03-05T05:34:20.620Z,22.80
2023-03-05T05:36:54.576Z,23.05
2023-03-05T05:39:21.644Z,21.67
2023-03-05T05:41:59.601Z,22.65
2023-03-05T05:44:28.333Z,21.65
2023-03-05T05:47:01.620Z,20.83
2023-03-05T05:49:28.601Z,21.70
2023-03-05T05:52:02.609Z,21.90
2023-03-05T05:54:29.560Z,21.67
2023-03-05T05:57:02.561Z,20.40
2023-03-05T05:59:31.250Z,20.58
2023-03-05T06:02:04.666Z,22.15
2023-03-05T06:04:31.844Z,22.17
2023-03-05T06:07:05.802Z,20.25
2023-03-05T06:09:34.840Z,20.75
2023-03-05T06:12:08.625Z,20.02
2023-03-05T06:14:36.906Z,21.05
2023-03-05T06:17:12.915Z,20.27
2023-03-05T06:19:41.795Z,19.35
2023-03-05T06:22:17.627Z,19.63
2023-03-05T06:24:44.579Z,19.77
2023-03-05T06:27:17.553Z,18.42
2023-03-05T06:29:45.880Z,18.30
2023-03-05T06:32:22.632Z,18.05
2023-03-05T06:34:49.653Z,17.30
2023-03-05T06:37:23.571Z,15.85
2023-03-05T06:39:50.556Z,15.98
2023-03-05T06:42:23.585Z,16.00
2023-03-05T06:44:51.958Z,16.27
2023-03-05T06:47:25.569Z,16.17
2023-03-05T06:49:52.605Z,16.35
2023-03-05T06:52:25.588Z,15.40
2023-03-05T06:54:52.559Z,13.85
2023-03-05T06:57:25.644Z,13.40
2023-03-05T06:59:54.045Z,13.73
2023-03-05T07:02:27.596Z,14.02
2023-03-05T07:04:54.628Z,14.35
2023-03-05T07:07:27.567Z,15.88
2023-03-05T07:09:54.819Z,16.20
2023-03-05T07:12:28.623Z,16.30
2023-03-05T07:14:57.011Z,16.25
2023-03-05T07:17:30.587Z,15.85
2023-03-05T07:19:57.504Z,16.13
2023-03-05T07:22:30.570Z,17.13
2023-03-05T07:24:57.506Z,15.60
2023-03-05T07:27:31.573Z,15.52
2023-03-05T07:30:00.918Z,15.15
2023-03-05T07:32:34.708Z,14.55
2023-03-05T07:35:02.193Z,16.45
2023-03-05T07:37:35.582Z,15.68
2023-03-05T07:40:03.411Z,17.27
2023-03-05T07:42:36.610Z,17.00
2023-03-05T07:45:05.894Z,16.52
2023-03-05T07:47:40.065Z,17.23
2023-03-05T07:50:09.010Z,12.83
2023-03-05T07:52:36.037Z,16.90
2023-03-05T07:55:03.082Z,17.15
2023-03-05T07:57:30.152Z,17.70
2023-03-05T07:59:57.150Z,18.30
2023-03-05T08:02:25.674Z,18.00
2023-03-05T08:04:52.694Z,16.45
2023-03-05T08:07:19.772Z,17.00
2023-03-05T08:09:46.826Z,15.63
2023-03-05T08:12:13.875Z,15.68
2023-03-05T08:14:40.959Z,13.60
2023-03-05T08:17:07.933Z,15.30
2023-03-05T08:19:36.321Z,14.32
2023-03-05T08:22:03.346Z,13.00
2023-03-05T08:24:30.305Z,12.68
2023-03-05T08:26:58.035Z,12.10
2023-03-05T08:29:25.498Z,13.18
2023-03-05T08:31:53.264Z,12.88
2023-03-05T08:34:20.316Z,12.80
2023-03-05T08:36:49.319Z,13.15
2023-03-05T08:39:16.529Z,13.50
2023-03-05T08:41:43.489Z,12.50
2023-03-05T08:44:10.582Z,14.57
2023-03-05T08:46:39.847Z,13.57
2023-03-05T08:49:07.254Z,12.10
2023-03-05T08:51:34.340Z,12.90
2023-03-05T08:54:02.785Z,11.15
2023-03-05T08:56:29.787Z,11.75
2023-03-05T08:58:56.793Z,11.52
2023-03-05T09:01:23.834Z,11.27
2023-03-05T09:03:50.868Z,12.25
2023-03-05T09:06:17.895Z,10.80
2023-03-05T09:08:44.950Z,10.52
2023-03-05T09:11:13.876Z,10.57
2023-03-05T09:13:41.110Z,10.80
2023-03-05T09:16:11.804Z,10.20
2023-03-05T09:18:39.301Z,10.27
2023-03-05T09:21:08.072Z,9.88
2023-03-05T09:23:35.093Z,10.40
2023-03-05T09:26:02.094Z,9.30
2023-03-05T09:28:30.456Z,8.82
2023-03-05T09:30:57.503Z,8.60
2023-03-05T09:33:24.586Z,8.05
2023-03-05T09:35:51.745Z,10.07
2023-03-05T09:38:18.794Z,7.78
2023-03-05T09:40:52.571Z,8.05
2023-03-05T09:43:30.568Z,7.78
2023-03-05T09:46:17.924Z,7.10
2023-03-05T09:48:50.898Z,6.90
2023-03-05T09:51:23.935Z,7.18
2023-03-05T09:53:59.482Z,6.78
2023-03-05T09:56:31.774Z,7.32
2023-03-05T09:59:03.980Z,6.22
2023-03-05T10:01:38.331Z,6.30
2023-03-05T10:04:11.537Z,5.57
2023-03-05T10:06:44.702Z,5.60
2023-03-05T10:09:17.086Z,5.82
2023-03-05T10:11:50.826Z,5.15
2023-03-05T10:14:27.757Z,5.53
2023-03-05T10:17:40.407Z,5.45
2023-03-05T10:20:33.958Z,5.10
2023-03-05T10:23:16.976Z,4.70
2023-03-05T10:26:15.946Z,4.38
2023-03-05T10:28:52.862Z,2.17
2023-03-05T10:31:50.885Z,2.53
2023-03-05T10:34:44.041Z,2.50
2023-03-05T10:37:29.052Z,2.85
2023-03-05T10:40:04.694Z,2.67
2023-03-05T10:42:41.451Z,2.10
2023-03-05T10:45:15.638Z,1.88
2023-03-05T10:47:47.416Z,2.00
2023-03-05T10:50:19.693Z,1.50
2023-03-05T10:52:50.865Z,1.83
2023-03-05T10:55:20.660Z,1.83
2023-03-05T10:57:48.604Z,2.22
2023-03-05T11:00:20.926Z,2.60
2023-03-05T11:02:59.902Z,2.72
2023-03-05T11:05:48.560Z,3.20
2023-03-05T11:08:35.739Z,3.05
2023-03-05T11:11:14.429Z,3.45
2023-03-05T11:13:55.292Z,3.67
2023-03-05T11:16:25.489Z,3.00
2023-03-05T11:19:16.263Z,3.88
2023-03-05T11:21:46.079Z,3.10
2023-03-05T11:24:15.700Z,3.80
2023-03-05T11:26:47.905Z,3.20
2023-03-05T11:29:20.326Z,3.45
2023-03-05T11:31:47.392Z,3.60
2023-03-05T11:34:31.220Z,3.20
2023-03-05T11:37:05.683Z,3.53
2023-03-05T11:39:34.510Z,3.55
2023-03-05T11:42:04.826Z,3.80
2023-03-05T11:44:34.937Z,3.92
2023-03-05T11:47:07.060Z,3.60
2023-03-05T11:49:42.646Z,3.20
2023-03-05T11:52:15.699Z,3.25
2023-03-05T11:54:54.044Z,3.15
2023-03-05T11:57:23.940Z,2.90
2023-03-05T11:59:52.567Z,3.60
2023-03-05T12:02:21.920Z,2.97
2023-03-05T12:04:50.385Z,4.22
2023-03-05T12:07:22.227Z,3.67
2023-03-05T12:09:51.213Z,3.60
2023-03-05T12:12:31.114Z,3.80
2023-03-05T12:15:05.941Z,3.70
2023-03-05T12:17:42.315Z,4.28
2023-03-05T12:20:18.637Z,4.00
2023-03-05T12:22:47.323Z,4.80
2023-03-05T12:25:25.685Z,4.75
2023-03-05T12:27:52.852Z,4.10
2023-03-05T12:30:54.532Z,3.85
2023-03-05T12:33:33.605Z,3.92
2023-03-05T12:36:40.835Z,4.05
2023-03-05T12:39:44.002Z,4.10
2023-03-05T12:42:47.690Z,3.90
2023-03-05T12:45:27.387Z,3.95
2023-03-05T12:48:31.605Z,3.70
2023-03-05T12:50:59.104Z,3.45
2023-03-05T12:53:26.122Z,4.35
2023-03-05T12:56:01.842Z,3.60
2023-03-05T12:58:37.630Z,3.30
2023-03-05T13:01:15.500Z,3.30
2023-03-05T13:03:48.507Z,2.95
2023-03-05T13:06:27.765Z,2.85
2023-03-05T13:08:59.735Z,2.90
2023-03-05T13:11:28.702Z,2.90
2023-03-05T13:13:57.361Z,3.20
2023-03-05T13:16:26.107Z,2.42
2023-03-05T13:18:54.367Z,2.53
2023-03-05T13:21:25.657Z,2.15
2023-03-05T13:23:53.642Z,2.70
2023-03-05T13:26:21.130Z,2.85
2023-03-05T13:29:05.598Z,2.20
2023-03-05T13:31:36.147Z,2.13
2023-03-05T13:34:14.316Z,2.08
2023-03-05T13:36:47.109Z,1.80
2023-03-05T13:39:20.189Z,2.15
2023-03-05T13:41:58.631Z,2.30
2023-03-05T13:44:27.367Z,1.90
2023-03-05T13:46:54.275Z,1.85
2023-03-05T13:49:23.760Z,1.95
2023-03-05T13:51:52.428Z,2.00
2023-03-05T13:54:20.112Z,2.70
2023-03-05T13:56:55.539Z,2.28
2023-03-05T13:59:24.739Z,2.15
2023-03-05T14:01:54.505Z,4.63
2023-03-05T14:04:24.464Z,2.97
2023-03-05T14:06:55.436Z,22.27
2023-03-05T14:09:24.773Z,19.05
2023-03-05T14:11:57.525Z,2.80
2023-03-05T14:14:26.122Z,95.18
2023-03-05T14:16:54.931Z,36.53
2023-03-05T14:19:37.104Z,36.80
2023-03-05T14:22:04.670Z,15.43
2023-03-05T14:24:32.087Z,3.45
2023-03-05T14:27:00.582Z,2.25
2023-03-05T14:29:28.751Z,2.90
2023-03-05T14:31:59.239Z,2.40
2023-03-05T14:34:28.629Z,1.90
2023-03-05T14:36:58.736Z,1.92
2023-03-05T14:39:31.798Z,2.20
2023-03-05T14:42:26.346Z,3.75
2023-03-05T14:44:53.899Z,4.18
2023-03-05T14:47:22.533Z,2.53
2023-03-05T14:49:49.539Z,2.53
2023-03-05T14:52:19.155Z,3.47
2023-03-05T14:54:46.772Z,3.38
2023-03-05T14:57:16.999Z,3.00
2023-03-05T14:59:44.305Z,1.90
2023-03-05T15:02:16.289Z,2.30
2023-03-05T15:04:44.755Z,2.20
2023-03-05T15:07:19.336Z,2.40
2023-03-05T15:09:46.668Z,2.25
2023-03-05T15:12:15.026Z,2.22
2023-03-05T15:14:42.337Z,2.17
2023-03-05T15:17:16.605Z,2.17
2023-03-05T15:19:45.448Z,2.28
2023-03-05T15:22:12.751Z,2.45
2023-03-05T15:24:39.828Z,2.55
2023-03-05T15:27:07.058Z,2.13
2023-03-05T15:29:34.540Z,2.65
2023-03-05T15:32:01.975Z,2.25
2023-03-05T15:34:29.844Z,2.17
2023-03-05T15:36:58.198Z,2.25
2023-03-05T15:39:25.188Z,3.08
2023-03-05T15:41:53.075Z,2.22
2023-03-05T15:44:20.670Z,3.75
2023-03-05T15:46:48.278Z,4.50
2023-03-05T15:49:16.309Z,3.00
2023-03-05T15:51:43.365Z,3.33
2023-03-05T15:54:11.745Z,2.80
2023-03-05T15:56:39.902Z,3.95
2023-03-05T15:59:06.928Z,3.50
2023-03-05T16:01:33.996Z,2.95
2023-03-05T16:04:00.953Z,3.85
2023-03-05T16:06:28.545Z,4.10
2023-03-05T16:09:00.611Z,5.43
2023-03-05T16:11:31.732Z,11.68
2023-03-05T16:13:59.847Z,9.60
2023-03-05T16:16:27.068Z,14.35
2023-03-05T16:18:54.265Z,8.55
2023-03-05T16:21:21.320Z,16.63
2023-03-05T16:23:48.328Z,8.57
2023-03-05T16:26:15.659Z,7.45
2023-03-05T16:28:44.383Z,8.75
2023-03-05T16:31:11.434Z,7.57
2023-03-05T16:33:38.414Z,8.38
2023-03-05T16:36:21.681Z,7.75
2023-03-05T16:38:49.522Z,14.90
2023-03-05T16:41:17.364Z,7.85
2023-03-05T16:43:46.128Z,7.47
2023-03-05T16:46:14.384Z,7.68
2023-03-05T16:48:41.540Z,7.80
2023-03-05T16:51:09.686Z,7.80
2023-03-05T16:53:37.228Z,6.93
2023-03-05T16:56:05.830Z,8.13
2023-03-05T16:58:33.871Z,8.23
2023-03-05T17:01:03.282Z,6.93
2023-03-05T17:03:30.644Z,7.55
2023-03-05T17:05:57.764Z,8.05
2023-03-05T17:08:24.897Z,8.52
2023-03-05T17:10:52.003Z,9.05
2023-03-05T17:13:18.987Z,10.07
2023-03-05T17:15:46.004Z,9.75
2023-03-05T17:18:14.390Z,10.23
2023-03-05T17:20:41.442Z,10.45
2023-03-05T17:23:08.393Z,10.30
2023-03-05T17:25:37.385Z,18.58
2023-03-05T17:28:04.585Z,18.15
2023-03-05T17:30:31.599Z,18.90
2023-03-05T17:32:58.712Z,9.98
2023-03-05T17:35:27.391Z,7.38
2023-03-05T17:37:54.434Z,7.28
2023-03-05T17:40:21.483Z,8.00
2023-03-05T17:42:48.529Z,10.73
2023-03-05T17:45:15.681Z,18.17
2023-03-05T17:47:42.798Z,8.10
2023-03-05T17:50:11.119Z,9.35
2023-03-05T17:52:39.734Z,8.52
2023-03-05T17:55:08.241Z,9.30
2023-03-05T17:57:35.541Z,8.20
2023-03-05T18:00:02.681Z,8.50
2023-03-05T18:02:29.748Z,8.68
2023-03-05T18:04:56.701Z,8.75
2023-03-05T18:07:23.740Z,8.23
2023-03-05T18:09:52.224Z,9.32
2023-03-05T18:12:19.179Z,8.70
2023-03-05T18:14:46.163Z,10.13
2023-03-05T18:17:13.142Z,10.60
2023-03-05T18:19:40.240Z,10.30
2023-03-05T18:22:07.187Z,9.70
2023-03-05T18:24:34.335Z,10.38
2023-03-05T18:27:02.938Z,9.52
2023-03-05T18:29:29.927Z,9.82
2023-03-05T18:31:56.949Z,8.90
2023-03-05T18:34:23.948Z,9.10
2023-03-05T18:36:51.052Z,8.63
2023-03-05T18:39:18.287Z,9.60
2023-03-05T18:41:46.273Z,10.00
2023-03-05T18:44:15.155Z,9.60
2023-03-05T18:46:42.222Z,9.48
2023-03-05T18:49:09.272Z,9.10
2023-03-05T18:51:36.550Z,9.50
2023-03-05T18:54:03.778Z,10.25
2023-03-05T18:56:30.849Z,10.15
2023-03-05T18:58:58.907Z,10.73
2023-03-05T19:01:27.838Z,11.35
2023-03-05T19:03:55.100Z,11.05
2023-03-05T19:06:22.108Z,11.50
2023-03-05T19:09:06.097Z,11.38
2023-03-05T19:11:33.342Z,12.50
2023-03-05T19:14:00.296Z,12.63
2023-03-05T19:16:29.914Z,13.30
2023-03-05T19:18:56.948Z,14.00
2023-03-05T19:21:24.598Z,13.60
2023-03-05T19:23:51.603Z,14.15
2023-03-05T19:26:18.603Z,15.32
2023-03-05T19:28:45.865Z,16.98
2023-03-05T19:31:14.314Z,15.10
2023-03-05T19:33:43.080Z,17.08
2023-03-05T19:36:11.833Z,16.88
2023-03-05T19:38:39.518Z,17.35
2023-03-05T19:41:08.969Z,17.17
2023-03-05T19:43:36.185Z,18.85
2023-03-05T19:46:04.602Z,17.58
2023-03-05T19:48:31.845Z,18.23
2023-03-05T19:51:00.343Z,20.70
2023-03-05T19:53:27.534Z,20.75
2023-03-05T19:55:54.591Z,20.20
2023-03-05T19:58:21.658Z,20.92
2023-03-05T20:00:48.714Z,20.80
2023-03-05T20:03:16.673Z,20.90
2023-03-05T20:05:43.729Z,24.08
2023-03-05T20:08:12.491Z,21.58
2023-03-05T20:10:45.554Z,22.90
2023-03-05T20:13:16.593Z,21.58
2023-03-05T20:15:43.652Z,20.70
2023-03-05T20:18:10.679Z,24.27
2023-03-05T20:20:37.879Z,23.13
2023-03-05T20:23:04.999Z,23.10
2023-03-05T20:25:38.409Z,22.75
2023-03-05T20:28:08.943Z,23.67
2023-03-05T20:30:36.011Z,23.77
2023-03-05T20:33:03.552Z,22.55
2023-03-05T20:35:30.697Z,24.35
2023-03-05T20:38:16.298Z,21.55
2023-03-05T20:40:44.795Z,23.05
2023-03-05T20:43:11.897Z,22.05
2023-03-05T20:45:39.669Z,23.48
2023-03-05T20:48:15.681Z,23.13
2023-03-05T20:50:44.190Z,23.02
2023-03-05T20:53:11.218Z,24.80
2023-03-05T20:55:52.044Z,24.95
2023-03-05T20:58:19.016Z,24.60
2023-03-05T21:00:49.642Z,23.55
2023-03-05T21:03:16.599Z,24.85
2023-03-05T21:05:44.231Z,23.88
2023-03-05T21:08:11.475Z,24.25
2023-03-05T21:10:38.712Z,23.50
2023-03-05T21:13:07.073Z,24.67
2023-03-05T21:15:34.174Z,23.70
2023-03-05T21:18:01.461Z,25.45
2023-03-05T21:20:29.963Z,24.42
2023-03-05T21:22:57.823Z,25.23
2023-03-05T21:25:26.665Z,24.90
2023-03-05T21:27:56.636Z,25.17
2023-03-05T21:30:29.029Z,25.20
2023-03-05T21:32:59.874Z,25.15
2023-03-05T21:35:27.951Z,24.05
2023-03-05T21:37:55.008Z,24.98
2023-03-05T21:40:22.436Z,25.65
2023-03-05T21:42:49.747Z,25.17
2023-03-05T21:45:19.014Z,25.75
2023-03-05T21:47:48.190Z,25.67
2023-03-05T21:50:16.940Z,25.05
2023-03-05T21:52:44.084Z,25.40
2023-03-05T21:55:19.680Z,25.80
2023-03-05T21:57:46.964Z,25.85
2023-03-05T22:00:14.859Z,27.55
2023-03-05T22:02:42.311Z,26.45
2023-03-05T22:05:13.155Z,26.42
2023-03-05T22:07:40.176Z,27.63
2023-03-05T22:10:10.551Z,27.95
2023-03-05T22:13:06.757Z,27.85
2023-03-05T22:15:34.173Z,25.23
2023-03-05T22:18:01.191Z,26.30
2023-03-05T22:20:29.542Z,26.73
2023-03-05T22:22:59.524Z,26.45
2023-03-05T22:25:26.532Z,27.05
2023-03-05T22:27:53.499Z,31.08
2023-03-05T22:30:20.682Z,42.65
2023-03-05T22:32:47.874Z,47.38
2023-03-05T22:35:15.753Z,48.17
2023-03-05T22:37:44.327Z,41.65
2023-03-05T22:40:15.376Z,34.92
2023-03-05T22:42:42.450Z,32.35
2023-03-05T22:45:10.292Z,31.05
2023-03-05T22:47:37.530Z,31.55
2023-03-05T22:50:05.771Z,29.20
2023-03-05T22:52:35.127Z,30.00
2023-03-05T22:55:03.818Z,30.38
2023-03-05T22:57:38.142Z,30.58
2023-03-05T23:00:07.326Z,29.92
2023-03-05T23:02:34.384Z,29.30
2023-03-05T23:05:04.851Z,30.70
2023-03-05T23:07:36.990Z,29.90
2023-03-05T23:10:12.265Z,30.77
2023-03-05T23:12:46.974Z,28.63
2023-03-05T23:15:16.267Z,29.83
2023-03-05T23:17:43.282Z,30.02
2023-03-05T23:20:12.339Z,29.65
2023-03-05T23:22:40.111Z,29.63
2023-03-05T23:25:09.492Z,27.90
2023-03-05T23:27:36.516Z,29.58
2023-03-05T23:30:14.963Z,30.00
2023-03-05T23:32:42.679Z,28.13
2023-03-05T23:35:11.432Z,30.65
2023-03-05T23:37:38.748Z,31.20
2023-03-05T23:40:11.403Z,30.65
2023-03-05T23:42:38.483Z,30.88
2023-03-05T23:45:07.099Z,30.02
2023-03-05T23:47:37.314Z,31.00
2023-03-05T23:50:04.926Z,29.50
2023-03-05T23:52:31.976Z,31.60
2023-03-05T23:54:59.296Z,30.60
2023-03-05T23:57:28.007Z,30.95
2023-03-05T23:59:55.194Z,30.20
